Singapore, Singapore
Current Conditions -  °F | °C
As of 6:00 PM on Tuesday 21 Oct 2014 (Local Time) from WSAP Reporting Station
Rain Showers Rain Showers  
Wind Chill: 81°   Ceiling: Unl
Heat Index: 87°   Visibility: 4mi
Dew Point: 77°   Wind: 7mph
Humidity: 89%   Direction: 360°N
Pressure: 29.83"   Gusts: NA
Location:  1.3°N, 103.85°E
Report Text: WSAP 211000Z 36006KT 6000 -SHRA FEW010 FEW016TCU SCT150 27/25 Q1010
Loading
Personal Weather Stations






























Interactive Weather Map
Tropical Storm Tracking
New forecast layout! Learn more

10-Day Weather Forecast

Advertisements
Track Severe Weather on mobile